sensor_id;sensor_type;location;lat;lon;timestamp;P1;durP1;ratioP1;P2;durP2;ratioP2
4766;SDS011;2397;53.576;9.746;2023-02-01T00:00:25;22.97;;;4.97;;
4766;SDS011;2397;53.576;9.746;2023-02-01T00:02:52;16.73;;;4.07;;
4766;SDS011;2397;53.576;9.746;2023-02-01T00:05:18;14.17;;;3.07;;
4766;SDS011;2397;53.576;9.746;2023-02-01T00:07:46;20.03;;;4.07;;
4766;SDS011;2397;53.576;9.746;2023-02-01T00:10:14;16.83;;;3.97;;
4766;SDS011;2397;53.576;9.746;2023-02-01T00:12:41;20.10;;;4.07;;
4766;SDS011;2397;53.576;9.746;2023-02-01T00:15:08;17.83;;;4.43;;
4766;SDS011;2397;53.576;9.746;2023-02-01T00:17:35;16.00;;;4.47;;
4766;SDS011;2397;53.576;9.746;2023-02-01T00:20:01;21.57;;;4.10;;
4766;SDS011;2397;53.576;9.746;2023-02-01T00:22:29;18.63;;;4.30;;
4766;SDS011;2397;53.576;9.746;2023-02-01T00:24:55;22.90;;;4.17;;
4766;SDS011;2397;53.576;9.746;2023-02-01T00:27:21;16.37;;;4.40;;
4766;SDS011;2397;53.576;9.746;2023-02-01T00:29:48;27.40;;;5.07;;
4766;SDS011;2397;53.576;9.746;2023-02-01T00:32:14;17.07;;;4.13;;
4766;SDS011;2397;53.576;9.746;2023-02-01T00:34:40;20.17;;;4.40;;
4766;SDS011;2397;53.576;9.746;2023-02-01T00:37:07;16.67;;;5.20;;
4766;SDS011;2397;53.576;9.746;2023-02-01T00:39:33;28.47;;;6.17;;
4766;SDS011;2397;53.576;9.746;2023-02-01T00:42:00;19.80;;;4.63;;
4766;SDS011;2397;53.576;9.746;2023-02-01T00:44:28;22.50;;;5.33;;
4766;SDS011;2397;53.576;9.746;2023-02-01T00:46:59;21.40;;;4.43;;
4766;SDS011;2397;53.576;9.746;2023-02-01T00:49:26;22.60;;;6.03;;
4766;SDS011;2397;53.576;9.746;2023-02-01T00:51:52;22.30;;;4.97;;
4766;SDS011;2397;53.576;9.746;2023-02-01T00:54:19;23.07;;;6.37;;
4766;SDS011;2397;53.576;9.746;2023-02-01T00:56:45;21.33;;;4.90;;
4766;SDS011;2397;53.576;9.746;2023-02-01T00:59:11;23.73;;;5.30;;
4766;SDS011;2397;53.576;9.746;2023-02-01T01:01:38;24.87;;;5.33;;
4766;SDS011;2397;53.576;9.746;2023-02-01T01:04:04;21.73;;;4.33;;
4766;SDS011;2397;53.576;9.746;2023-02-01T01:06:32;22.00;;;4.90;;
4766;SDS011;2397;53.576;9.746;2023-02-01T01:09:00;25.10;;;5.00;;
4766;SDS011;2397;53.576;9.746;2023-02-01T01:11:30;20.30;;;4.40;;
4766;SDS011;2397;53.576;9.746;2023-02-01T01:13:58;24.20;;;5.40;;
4766;SDS011;2397;53.576;9.746;2023-02-01T01:16:27;26.43;;;5.50;;
4766;SDS011;2397;53.576;9.746;2023-02-01T01:18:56;23.33;;;4.97;;
4766;SDS011;2397;53.576;9.746;2023-02-01T01:21:23;28.70;;;4.87;;
4766;SDS011;2397;53.576;9.746;2023-02-01T01:23:50;21.33;;;4.90;;
4766;SDS011;2397;53.576;9.746;2023-02-01T01:26:18;20.70;;;4.70;;
4766;SDS011;2397;53.576;9.746;2023-02-01T01:28:46;20.10;;;4.60;;
4766;SDS011;2397;53.576;9.746;2023-02-01T01:31:13;26.60;;;5.70;;
4766;SDS011;2397;53.576;9.746;2023-02-01T01:33:41;25.83;;;3.90;;
4766;SDS011;2397;53.576;9.746;2023-02-01T01:36:10;27.57;;;5.60;;
4766;SDS011;2397;53.576;9.746;2023-02-01T01:38:38;31.30;;;5.07;;
4766;SDS011;2397;53.576;9.746;2023-02-01T01:41:05;28.90;;;5.37;;
4766;SDS011;2397;53.576;9.746;2023-02-01T01:46:15;24.50;;;5.50;;
4766;SDS011;2397;53.576;9.746;2023-02-01T01:48:43;31.80;;;5.37;;
4766;SDS011;2397;53.576;9.746;2023-02-01T01:51:10;27.67;;;5.17;;
4766;SDS011;2397;53.576;9.746;2023-02-01T01:53:43;29.60;;;5.23;;
4766;SDS011;2397;53.576;9.746;2023-02-01T01:56:14;24.87;;;7.93;;
4766;SDS011;2397;53.576;9.746;2023-02-01T01:58:40;27.40;;;6.13;;
4766;SDS011;2397;53.576;9.746;2023-02-01T02:01:07;35.43;;;5.57;;
4766;SDS011;2397;53.576;9.746;2023-02-01T02:03:41;33.10;;;4.40;;
4766;SDS011;2397;53.576;9.746;2023-02-01T02:06:11;33.87;;;6.57;;
4766;SDS011;2397;53.576;9.746;2023-02-01T02:08:52;38.03;;;5.47;;
4766;SDS011;2397;53.576;9.746;2023-02-01T02:11:19;22.23;;;5.07;;
4766;SDS011;2397;53.576;9.746;2023-02-01T02:13:46;29.87;;;5.80;;
4766;SDS011;2397;53.576;9.746;2023-02-01T02:16:21;27.30;;;4.87;;
4766;SDS011;2397;53.576;9.746;2023-02-01T02:19:22;27.13;;;6.13;;
4766;SDS011;2397;53.576;9.746;2023-02-01T02:39:50;27.97;;;5.70;;
4766;SDS011;2397;53.576;9.746;2023-02-01T02:45:39;43.10;;;6.20;;
4766;SDS011;2397;53.576;9.746;2023-02-01T02:48:30;23.67;;;4.50;;
4766;SDS011;2397;53.576;9.746;2023-02-01T02:51:31;21.23;;;5.43;;
4766;SDS011;2397;53.576;9.746;2023-02-01T02:54:28;20.30;;;4.47;;
4766;SDS011;2397;53.576;9.746;2023-02-01T02:57:19;28.83;;;6.13;;
4766;SDS011;2397;53.576;9.746;2023-02-01T03:00:08;25.13;;;5.90;;
4766;SDS011;2397;53.576;9.746;2023-02-01T03:02:57;31.57;;;5.47;;
4766;SDS011;2397;53.576;9.746;2023-02-01T03:05:43;22.17;;;5.80;;
4766;SDS011;2397;53.576;9.746;2023-02-01T03:08:15;23.67;;;5.20;;
4766;SDS011;2397;53.576;9.746;2023-02-01T03:10:48;23.67;;;5.27;;
4766;SDS011;2397;53.576;9.746;2023-02-01T03:13:24;27.63;;;6.30;;
4766;SDS011;2397;53.576;9.746;2023-02-01T03:21:07;14.47;;;2.97;;
4766;SDS011;2397;53.576;9.746;2023-02-01T03:23:36;12.13;;;3.00;;
4766;SDS011;2397;53.576;9.746;2023-02-01T03:26:07;7.10;;;3.40;;
4766;SDS011;2397;53.576;9.746;2023-02-01T03:28:37;18.00;;;4.00;;
4766;SDS011;2397;53.576;9.746;2023-02-01T03:31:08;16.23;;;3.80;;
4766;SDS011;2397;53.576;9.746;2023-02-01T03:33:35;14.67;;;3.70;;
4766;SDS011;2397;53.576;9.746;2023-02-01T03:38:45;11.80;;;2.77;;
4766;SDS011;2397;53.576;9.746;2023-02-01T03:41:24;20.73;;;3.90;;
4766;SDS011;2397;53.576;9.746;2023-02-01T03:44:16;23.40;;;3.50;;
4766;SDS011;2397;53.576;9.746;2023-02-01T03:49:47;14.87;;;4.00;;
4766;SDS011;2397;53.576;9.746;2023-02-01T03:52:18;16.10;;;3.67;;
4766;SDS011;2397;53.576;9.746;2023-02-01T03:54:49;19.83;;;3.97;;
4766;SDS011;2397;53.576;9.746;2023-02-01T03:57:18;24.40;;;4.47;;
4766;SDS011;2397;53.576;9.746;2023-02-01T03:59:50;17.37;;;4.07;;
4766;SDS011;2397;53.576;9.746;2023-02-01T04:02:16;26.00;;;5.30;;
4766;SDS011;2397;53.576;9.746;2023-02-01T04:04:43;11.80;;;3.57;;
4766;SDS011;2397;53.576;9.746;2023-02-01T04:07:09;20.73;;;4.07;;
4766;SDS011;2397;53.576;9.746;2023-02-01T04:09:35;15.37;;;4.07;;
4766;SDS011;2397;53.576;9.746;2023-02-01T04:12:02;18.67;;;3.60;;
4766;SDS011;2397;53.576;9.746;2023-02-01T04:14:28;23.97;;;6.17;;
4766;SDS011;2397;53.576;9.746;2023-02-01T04:16:55;13.77;;;4.03;;
4766;SDS011;2397;53.576;9.746;2023-02-01T04:19:21;21.00;;;4.47;;
4766;SDS011;2397;53.576;9.746;2023-02-01T04:21:47;14.80;;;3.60;;
4766;SDS011;2397;53.576;9.746;2023-02-01T04:24:14;10.23;;;3.10;;
4766;SDS011;2397;53.576;9.746;2023-02-01T04:26:40;12.60;;;3.50;;
4766;SDS011;2397;53.576;9.746;2023-02-01T04:29:08;19.97;;;3.63;;
4766;SDS011;2397;53.576;9.746;2023-02-01T04:31:35;13.30;;;4.40;;
4766;SDS011;2397;53.576;9.746;2023-02-01T04:34:02;12.70;;;2.77;;
4766;SDS011;2397;53.576;9.746;2023-02-01T04:36:29;12.33;;;3.10;;
4766;SDS011;2397;53.576;9.746;2023-02-01T04:38:55;17.00;;;4.47;;
4766;SDS011;2397;53.576;9.746;2023-02-01T04:41:21;14.63;;;3.93;;
4766;SDS011;2397;53.576;9.746;2023-02-01T04:43:49;12.87;;;3.57;;
4766;SDS011;2397;53.576;9.746;2023-02-01T04:46:18;19.67;;;2.87;;
4766;SDS011;2397;53.576;9.746;2023-02-01T04:48:44;12.23;;;2.70;;
4766;SDS011;2397;53.576;9.746;2023-02-01T04:51:11;9.07;;;2.33;;
4766;SDS011;2397;53.576;9.746;2023-02-01T04:53:38;5.00;;;1.90;;
4766;SDS011;2397;53.576;9.746;2023-02-01T04:56:05;5.73;;;2.17;;
4766;SDS011;2397;53.576;9.746;2023-02-01T04:58:32;6.60;;;1.90;;
4766;SDS011;2397;53.576;9.746;2023-02-01T05:00:59;6.77;;;1.87;;
4766;SDS011;2397;53.576;9.746;2023-02-01T05:03:31;6.17;;;1.60;;
4766;SDS011;2397;53.576;9.746;2023-02-01T05:05:58;1.97;;;1.30;;
4766;SDS011;2397;53.576;9.746;2023-02-01T05:08:26;1.93;;;1.13;;
4766;SDS011;2397;53.576;9.746;2023-02-01T05:10:53;3.37;;;1.00;;
4766;SDS011;2397;53.576;9.746;2023-02-01T05:13:19;2.10;;;1.10;;
4766;SDS011;2397;53.576;9.746;2023-02-01T05:16:04;3.30;;;1.50;;
4766;SDS011;2397;53.576;9.746;2023-02-01T05:18:31;1.33;;;1.23;;
4766;SDS011;2397;53.576;9.746;2023-02-01T05:20:57;2.23;;;1.20;;
4766;SDS011;2397;53.576;9.746;2023-02-01T05:23:23;4.97;;;1.03;;
4766;SDS011;2397;53.576;9.746;2023-02-01T05:25:50;2.70;;;1.20;;
4766;SDS011;2397;53.576;9.746;2023-02-01T05:28:16;1.33;;;0.90;;
4766;SDS011;2397;53.576;9.746;2023-02-01T05:30:42;1.27;;;1.17;;
4766;SDS011;2397;53.576;9.746;2023-02-01T05:33:09;1.00;;;0.90;;
4766;SDS011;2397;53.576;9.746;2023-02-01T05:35:35;5.77;;;1.70;;
4766;SDS011;2397;53.576;9.746;2023-02-01T05:38:02;1.50;;;1.10;;
4766;SDS011;2397;53.576;9.746;2023-02-01T05:40:28;1.13;;;0.87;;
4766;SDS011;2397;53.576;9.746;2023-02-01T05:42:54;2.33;;;1.30;;
4766;SDS011;2397;53.576;9.746;2023-02-01T05:45:21;2.93;;;1.20;;
4766;SDS011;2397;53.576;9.746;2023-02-01T05:47:48;8.07;;;1.57;;
4766;SDS011;2397;53.576;9.746;2023-02-01T05:50:15;2.50;;;0.83;;
4766;SDS011;2397;53.576;9.746;2023-02-01T05:52:42;8.03;;;1.50;;
4766;SDS011;2397;53.576;9.746;2023-02-01T05:55:09;1.07;;;0.97;;
4766;SDS011;2397;53.576;9.746;2023-02-01T05:57:35;4.77;;;1.00;;
4766;SDS011;2397;53.576;9.746;2023-02-01T06:00:02;3.90;;;1.73;;
4766;SDS011;2397;53.576;9.746;2023-02-01T06:02:29;3.93;;;1.53;;
4766;SDS011;2397;53.576;9.746;2023-02-01T06:04:55;2.00;;;1.30;;
4766;SDS011;2397;53.576;9.746;2023-02-01T06:07:22;6.20;;;1.17;;
4766;SDS011;2397;53.576;9.746;2023-02-01T06:09:48;6.47;;;2.00;;
4766;SDS011;2397;53.576;9.746;2023-02-01T06:12:15;8.23;;;1.40;;
4766;SDS011;2397;53.576;9.746;2023-02-01T06:14:41;4.00;;;1.43;;
4766;SDS011;2397;53.576;9.746;2023-02-01T06:17:09;12.83;;;2.00;;
4766;SDS011;2397;53.576;9.746;2023-02-01T06:19:35;5.70;;;2.93;;
4766;SDS011;2397;53.576;9.746;2023-02-01T06:22:02;4.97;;;2.30;;
4766;SDS011;2397;53.576;9.746;2023-02-01T06:24:32;6.10;;;1.93;;
4766;SDS011;2397;53.576;9.746;2023-02-01T06:26:58;14.83;;;3.03;;
4766;SDS011;2397;53.576;9.746;2023-02-01T06:29:25;13.27;;;2.50;;
4766;SDS011;2397;53.576;9.746;2023-02-01T06:31:52;5.33;;;2.40;;
4766;SDS011;2397;53.576;9.746;2023-02-01T06:34:19;16.37;;;3.90;;
4766;SDS011;2397;53.576;9.746;2023-02-01T06:36:47;9.30;;;3.40;;
4766;SDS011;2397;53.576;9.746;2023-02-01T06:39:13;10.40;;;2.53;;
4766;SDS011;2397;53.576;9.746;2023-02-01T06:41:42;5.60;;;2.20;;
4766;SDS011;2397;53.576;9.746;2023-02-01T06:44:12;10.83;;;3.20;;
4766;SDS011;2397;53.576;9.746;2023-02-01T06:46:38;8.00;;;3.10;;
4766;SDS011;2397;53.576;9.746;2023-02-01T06:49:05;14.67;;;3.70;;
4766;SDS011;2397;53.576;9.746;2023-02-01T06:51:31;12.83;;;3.00;;
4766;SDS011;2397;53.576;9.746;2023-02-01T06:53:57;10.17;;;2.47;;
4766;SDS011;2397;53.576;9.746;2023-02-01T06:56:24;19.60;;;3.17;;
4766;SDS011;2397;53.576;9.746;2023-02-01T06:58:51;6.70;;;2.70;;
4766;SDS011;2397;53.576;9.746;2023-02-01T07:01:18;9.50;;;2.87;;
4766;SDS011;2397;53.576;9.746;2023-02-01T07:03:48;17.33;;;6.83;;
4766;SDS011;2397;53.576;9.746;2023-02-01T07:06:17;16.43;;;3.93;;
4766;SDS011;2397;53.576;9.746;2023-02-01T07:08:44;24.43;;;4.43;;
4766;SDS011;2397;53.576;9.746;2023-02-01T07:11:11;24.40;;;4.27;;
4766;SDS011;2397;53.576;9.746;2023-02-01T07:13:39;17.87;;;3.80;;
4766;SDS011;2397;53.576;9.746;2023-02-01T07:16:06;27.37;;;5.17;;
4766;SDS011;2397;53.576;9.746;2023-02-01T07:18:36;23.70;;;4.30;;
4766;SDS011;2397;53.576;9.746;2023-02-01T07:21:03;24.03;;;4.13;;
4766;SDS011;2397;53.576;9.746;2023-02-01T07:23:29;26.87;;;4.43;;
4766;SDS011;2397;53.576;9.746;2023-02-01T07:25:56;30.50;;;6.57;;
4766;SDS011;2397;53.576;9.746;2023-02-01T07:28:25;25.87;;;5.63;;
4766;SDS011;2397;53.576;9.746;2023-02-01T07:30:52;18.07;;;5.10;;
4766;SDS011;2397;53.576;9.746;2023-02-01T07:33:22;27.53;;;6.27;;
4766;SDS011;2397;53.576;9.746;2023-02-01T07:35:53;24.47;;;6.67;;
4766;SDS011;2397;53.576;9.746;2023-02-01T07:38:19;28.70;;;6.20;;
4766;SDS011;2397;53.576;9.746;2023-02-01T07:40:47;22.73;;;4.90;;
4766;SDS011;2397;53.576;9.746;2023-02-01T07:43:14;29.53;;;4.80;;
4766;SDS011;2397;53.576;9.746;2023-02-01T07:45:40;25.10;;;5.07;;
4766;SDS011;2397;53.576;9.746;2023-02-01T07:48:07;26.20;;;6.03;;
4766;SDS011;2397;53.576;9.746;2023-02-01T07:50:33;23.07;;;6.40;;
4766;SDS011;2397;53.576;9.746;2023-02-01T07:53:00;22.37;;;4.30;;
4766;SDS011;2397;53.576;9.746;2023-02-01T07:55:27;18.03;;;4.63;;
4766;SDS011;2397;53.576;9.746;2023-02-01T07:57:56;17.47;;;3.90;;
4766;SDS011;2397;53.576;9.746;2023-02-01T08:00:24;19.53;;;4.40;;
4766;SDS011;2397;53.576;9.746;2023-02-01T08:03:10;22.57;;;4.90;;
4766;SDS011;2397;53.576;9.746;2023-02-01T08:05:36;26.63;;;4.83;;
4766;SDS011;2397;53.576;9.746;2023-02-01T08:08:03;23.73;;;5.67;;
4766;SDS011;2397;53.576;9.746;2023-02-01T08:10:29;21.73;;;4.70;;
4766;SDS011;2397;53.576;9.746;2023-02-01T08:12:59;17.27;;;4.70;;
4766;SDS011;2397;53.576;9.746;2023-02-01T08:15:29;23.47;;;5.33;;
4766;SDS011;2397;53.576;9.746;2023-02-01T08:17:56;24.87;;;4.83;;
4766;SDS011;2397;53.576;9.746;2023-02-01T08:20:23;23.00;;;4.87;;
4766;SDS011;2397;53.576;9.746;2023-02-01T08:22:50;25.73;;;5.70;;
4766;SDS011;2397;53.576;9.746;2023-02-01T08:25:19;25.77;;;4.60;;
4766;SDS011;2397;53.576;9.746;2023-02-01T08:27:46;20.00;;;4.50;;
4766;SDS011;2397;53.576;9.746;2023-02-01T08:30:13;32.93;;;4.17;;
4766;SDS011;2397;53.576;9.746;2023-02-01T08:32:40;20.07;;;4.97;;
4766;SDS011;2397;53.576;9.746;2023-02-01T08:35:06;24.10;;;5.73;;
4766;SDS011;2397;53.576;9.746;2023-02-01T08:37:34;23.13;;;4.37;;
4766;SDS011;2397;53.576;9.746;2023-02-01T08:40:00;32.07;;;5.40;;
4766;SDS011;2397;53.576;9.746;2023-02-01T08:42:27;22.37;;;4.60;;
4766;SDS011;2397;53.576;9.746;2023-02-01T08:45:12;18.73;;;5.17;;
4766;SDS011;2397;53.576;9.746;2023-02-01T08:47:38;15.87;;;5.23;;
4766;SDS011;2397;53.576;9.746;2023-02-01T08:50:04;13.60;;;4.43;;
4766;SDS011;2397;53.576;9.746;2023-02-01T08:52:31;23.13;;;4.47;;
4766;SDS011;2397;53.576;9.746;2023-02-01T08:54:58;17.00;;;4.53;;
4766;SDS011;2397;53.576;9.746;2023-02-01T08:57:24;21.10;;;4.43;;
4766;SDS011;2397;53.576;9.746;2023-02-01T08:59:50;20.13;;;5.53;;
4766;SDS011;2397;53.576;9.746;2023-02-01T09:02:17;15.43;;;3.60;;
4766;SDS011;2397;53.576;9.746;2023-02-01T09:04:43;27.83;;;4.53;;
4766;SDS011;2397;53.576;9.746;2023-02-01T09:07:10;21.20;;;3.73;;
4766;SDS011;2397;53.576;9.746;2023-02-01T09:09:39;25.13;;;4.63;;
4766;SDS011;2397;53.576;9.746;2023-02-01T09:12:05;22.70;;;5.43;;
4766;SDS011;2397;53.576;9.746;2023-02-01T09:14:32;16.03;;;4.17;;
4766;SDS011;2397;53.576;9.746;2023-02-01T09:16:58;18.47;;;4.00;;
4766;SDS011;2397;53.576;9.746;2023-02-01T09:19:25;14.03;;;4.13;;
4766;SDS011;2397;53.576;9.746;2023-02-01T09:21:52;21.77;;;3.77;;
4766;SDS011;2397;53.576;9.746;2023-02-01T09:24:19;30.33;;;4.30;;
4766;SDS011;2397;53.576;9.746;2023-02-01T09:26:45;15.77;;;3.80;;
4766;SDS011;2397;53.576;9.746;2023-02-01T09:29:12;29.40;;;5.00;;
4766;SDS011;2397;53.576;9.746;2023-02-01T09:31:39;21.17;;;3.93;;
4766;SDS011;2397;53.576;9.746;2023-02-01T09:34:11;24.07;;;4.53;;
4766;SDS011;2397;53.576;9.746;2023-02-01T09:36:38;14.00;;;3.70;;
4766;SDS011;2397;53.576;9.746;2023-02-01T09:39:04;17.00;;;3.90;;
4766;SDS011;2397;53.576;9.746;2023-02-01T09:44:18;22.40;;;4.10;;
4766;SDS011;2397;53.576;9.746;2023-02-01T09:46:45;19.33;;;4.23;;
4766;SDS011;2397;53.576;9.746;2023-02-01T09:49:13;22.03;;;5.10;;
4766;SDS011;2397;53.576;9.746;2023-02-01T09:51:45;19.97;;;3.80;;
4766;SDS011;2397;53.576;9.746;2023-02-01T09:54:16;12.40;;;3.70;;
4766;SDS011;2397;53.576;9.746;2023-02-01T09:56:48;10.73;;;3.57;;
4766;SDS011;2397;53.576;9.746;2023-02-01T09:59:24;19.90;;;5.80;;
4766;SDS011;2397;53.576;9.746;2023-02-01T10:01:59;28.67;;;4.50;;
4766;SDS011;2397;53.576;9.746;2023-02-01T10:04:28;12.87;;;3.83;;
4766;SDS011;2397;53.576;9.746;2023-02-01T10:07:01;21.50;;;4.40;;
4766;SDS011;2397;53.576;9.746;2023-02-01T10:09:50;20.73;;;4.07;;
4766;SDS011;2397;53.576;9.746;2023-02-01T10:15:43;12.93;;;3.63;;
4766;SDS011;2397;53.576;9.746;2023-02-01T10:18:23;22.43;;;3.80;;
4766;SDS011;2397;53.576;9.746;2023-02-01T10:21:09;17.40;;;3.70;;
4766;SDS011;2397;53.576;9.746;2023-02-01T10:23:49;12.30;;;3.47;;
4766;SDS011;2397;53.576;9.746;2023-02-01T10:27:06;20.10;;;5.13;;
4766;SDS011;2397;53.576;9.746;2023-02-01T10:29:39;17.03;;;4.00;;
4766;SDS011;2397;53.576;9.746;2023-02-01T10:32:16;17.07;;;4.10;;
4766;SDS011;2397;53.576;9.746;2023-02-01T10:34:47;15.87;;;4.20;;
4766;SDS011;2397;53.576;9.746;2023-02-01T10:37:30;15.50;;;3.73;;
4766;SDS011;2397;53.576;9.746;2023-02-01T10:42:48;22.40;;;6.17;;
4766;SDS011;2397;53.576;9.746;2023-02-01T10:45:18;19.57;;;5.20;;
4766;SDS011;2397;53.576;9.746;2023-02-01T10:47:47;11.77;;;4.07;;
4766;SDS011;2397;53.576;9.746;2023-02-01T10:52:57;13.00;;;3.90;;
4766;SDS011;2397;53.576;9.746;2023-02-01T10:55:33;20.67;;;4.63;;
4766;SDS011;2397;53.576;9.746;2023-02-01T10:58:16;15.23;;;3.40;;
4766;SDS011;2397;53.576;9.746;2023-02-01T11:00:53;24.63;;;4.20;;
4766;SDS011;2397;53.576;9.746;2023-02-01T11:03:34;19.93;;;3.90;;
4766;SDS011;2397;53.576;9.746;2023-02-01T11:06:01;8.23;;;3.20;;
4766;SDS011;2397;53.576;9.746;2023-02-01T11:08:46;21.47;;;3.60;;
4766;SDS011;2397;53.576;9.746;2023-02-01T11:11:16;20.50;;;4.40;;
4766;SDS011;2397;53.576;9.746;2023-02-01T11:13:45;19.87;;;4.37;;
4766;SDS011;2397;53.576;9.746;2023-02-01T11:16:19;14.60;;;3.90;;
4766;SDS011;2397;53.576;9.746;2023-02-01T11:18:45;16.73;;;3.60;;
4766;SDS011;2397;53.576;9.746;2023-02-01T11:21:20;24.30;;;4.07;;
4766;SDS011;2397;53.576;9.746;2023-02-01T11:23:47;17.90;;;4.77;;
4766;SDS011;2397;53.576;9.746;2023-02-01T11:26:14;17.20;;;4.33;;
4766;SDS011;2397;53.576;9.746;2023-02-01T11:28:58;16.43;;;3.53;;
4766;SDS011;2397;53.576;9.746;2023-02-01T11:31:28;17.97;;;4.13;;
4766;SDS011;2397;53.576;9.746;2023-02-01T11:33:58;16.73;;;3.63;;
4766;SDS011;2397;53.576;9.746;2023-02-01T11:36:31;14.87;;;3.30;;
4766;SDS011;2397;53.576;9.746;2023-02-01T11:41:42;17.03;;;6.10;;
4766;SDS011;2397;53.576;9.746;2023-02-01T11:44:30;21.80;;;3.83;;
4766;SDS011;2397;53.576;9.746;2023-02-01T11:47:16;9.13;;;2.50;;
4766;SDS011;2397;53.576;9.746;2023-02-01T11:50:05;10.33;;;2.63;;
4766;SDS011;2397;53.576;9.746;2023-02-01T11:58:50;11.93;;;4.13;;
4766;SDS011;2397;53.576;9.746;2023-02-01T12:15:46;6.33;;;2.90;;
4766;SDS011;2397;53.576;9.746;2023-02-01T12:23:51;7.07;;;1.80;;
4766;SDS011;2397;53.576;9.746;2023-02-01T12:26:45;3.50;;;1.33;;
4766;SDS011;2397;53.576;9.746;2023-02-01T12:34:55;2.93;;;1.50;;
4766;SDS011;2397;53.576;9.746;2023-02-01T12:37:51;4.53;;;1.23;;
4766;SDS011;2397;53.576;9.746;2023-02-01T12:40:53;3.70;;;1.47;;
4766;SDS011;2397;53.576;9.746;2023-02-01T12:43:33;4.50;;;1.60;;
4766;SDS011;2397;53.576;9.746;2023-02-01T12:46:07;1.93;;;1.30;;
4766;SDS011;2397;53.576;9.746;2023-02-01T12:51:27;6.30;;;1.53;;
4766;SDS011;2397;53.576;9.746;2023-02-01T12:56:58;2.03;;;1.50;;
4766;SDS011;2397;53.576;9.746;2023-02-01T12:59:34;7.90;;;1.60;;
4766;SDS011;2397;53.576;9.746;2023-02-01T13:04:55;1.20;;;1.10;;
4766;SDS011;2397;53.576;9.746;2023-02-01T13:07:41;1.77;;;1.20;;
4766;SDS011;2397;53.576;9.746;2023-02-01T13:10:14;1.30;;;1.20;;
4766;SDS011;2397;53.576;9.746;2023-02-01T13:15:28;3.23;;;1.80;;
4766;SDS011;2397;53.576;9.746;2023-02-01T13:17:59;4.20;;;1.67;;
4766;SDS011;2397;53.576;9.746;2023-02-01T13:23:03;6.97;;;1.63;;
4766;SDS011;2397;53.576;9.746;2023-02-01T13:25:40;1.17;;;1.07;;
4766;SDS011;2397;53.576;9.746;2023-02-01T13:31:28;3.73;;;1.60;;
4766;SDS011;2397;53.576;9.746;2023-02-01T13:40:16;2.33;;;1.40;;
4766;SDS011;2397;53.576;9.746;2023-02-01T13:42:56;2.33;;;1.43;;
4766;SDS011;2397;53.576;9.746;2023-02-01T13:45:33;6.10;;;1.60;;
4766;SDS011;2397;53.576;9.746;2023-02-01T13:48:03;1.80;;;1.30;;
4766;SDS011;2397;53.576;9.746;2023-02-01T13:50:38;3.13;;;1.23;;
4766;SDS011;2397;53.576;9.746;2023-02-01T13:55:45;1.90;;;1.60;;
4766;SDS011;2397;53.576;9.746;2023-02-01T13:58:22;5.40;;;1.93;;
4766;SDS011;2397;53.576;9.746;2023-02-01T14:03:48;5.87;;;1.93;;
4766;SDS011;2397;53.576;9.746;2023-02-01T14:06:38;8.30;;;2.00;;
4766;SDS011;2397;53.576;9.746;2023-02-01T14:16:41;10.73;;;2.47;;
4766;SDS011;2397;53.576;9.746;2023-02-01T14:19:09;6.63;;;2.27;;
4766;SDS011;2397;53.576;9.746;2023-02-01T14:21:50;18.03;;;2.83;;
4766;SDS011;2397;53.576;9.746;2023-02-01T14:24:29;12.37;;;3.03;;
4766;SDS011;2397;53.576;9.746;2023-02-01T14:27:16;6.53;;;1.87;;
4766;SDS011;2397;53.576;9.746;2023-02-01T14:29:50;11.07;;;2.30;;
4766;SDS011;2397;53.576;9.746;2023-02-01T14:32:24;10.00;;;1.70;;
4766;SDS011;2397;53.576;9.746;2023-02-01T14:34:56;4.33;;;1.57;;
4766;SDS011;2397;53.576;9.746;2023-02-01T14:37:30;7.87;;;2.20;;
4766;SDS011;2397;53.576;9.746;2023-02-01T14:39:59;9.20;;;2.47;;
4766;SDS011;2397;53.576;9.746;2023-02-01T14:42:30;9.33;;;2.73;;
4766;SDS011;2397;53.576;9.746;2023-02-01T14:53:14;17.83;;;2.93;;
4766;SDS011;2397;53.576;9.746;2023-02-01T14:55:53;9.60;;;2.00;;
4766;SDS011;2397;53.576;9.746;2023-02-01T15:01:18;5.77;;;2.17;;
4766;SDS011;2397;53.576;9.746;2023-02-01T15:03:49;10.43;;;3.00;;
4766;SDS011;2397;53.576;9.746;2023-02-01T15:06:28;11.33;;;2.60;;
4766;SDS011;2397;53.576;9.746;2023-02-01T15:09:27;10.57;;;2.70;;
4766;SDS011;2397;53.576;9.746;2023-02-01T15:14:39;11.70;;;2.57;;
4766;SDS011;2397;53.576;9.746;2023-02-01T15:17:20;7.23;;;2.20;;
4766;SDS011;2397;53.576;9.746;2023-02-01T15:19:57;5.23;;;2.70;;
4766;SDS011;2397;53.576;9.746;2023-02-01T15:22:26;7.70;;;2.07;;
4766;SDS011;2397;53.576;9.746;2023-02-01T15:25:00;7.77;;;2.43;;
4766;SDS011;2397;53.576;9.746;2023-02-01T15:27:27;5.43;;;2.33;;
4766;SDS011;2397;53.576;9.746;2023-02-01T15:30:04;6.40;;;2.03;;
4766;SDS011;2397;53.576;9.746;2023-02-01T15:32:35;6.60;;;2.60;;
4766;SDS011;2397;53.576;9.746;2023-02-01T15:35:30;14.50;;;3.23;;
4766;SDS011;2397;53.576;9.746;2023-02-01T15:40:54;9.07;;;2.10;;
4766;SDS011;2397;53.576;9.746;2023-02-01T15:43:26;13.47;;;4.00;;
4766;SDS011;2397;53.576;9.746;2023-02-01T15:46:00;9.77;;;3.20;;
4766;SDS011;2397;53.576;9.746;2023-02-01T15:48:35;14.90;;;3.53;;
4766;SDS011;2397;53.576;9.746;2023-02-01T15:51:05;10.37;;;3.70;;
4766;SDS011;2397;53.576;9.746;2023-02-01T15:53:36;13.33;;;2.50;;
4766;SDS011;2397;53.576;9.746;2023-02-01T15:56:03;16.17;;;3.33;;
4766;SDS011;2397;53.576;9.746;2023-02-01T15:58:30;19.03;;;4.57;;
4766;SDS011;2397;53.576;9.746;2023-02-01T16:01:03;9.87;;;4.13;;
4766;SDS011;2397;53.576;9.746;2023-02-01T16:11:41;12.80;;;2.90;;
4766;SDS011;2397;53.576;9.746;2023-02-01T16:14:14;15.80;;;3.73;;
4766;SDS011;2397;53.576;9.746;2023-02-01T16:16:41;12.13;;;4.20;;
4766;SDS011;2397;53.576;9.746;2023-02-01T16:19:08;8.60;;;3.00;;
4766;SDS011;2397;53.576;9.746;2023-02-01T16:21:34;13.20;;;4.07;;
4766;SDS011;2397;53.576;9.746;2023-02-01T16:24:00;15.50;;;3.83;;
4766;SDS011;2397;53.576;9.746;2023-02-01T16:26:30;9.77;;;3.47;;
4766;SDS011;2397;53.576;9.746;2023-02-01T16:28:58;21.70;;;4.37;;
4766;SDS011;2397;53.576;9.746;2023-02-01T16:31:26;27.37;;;4.13;;
4766;SDS011;2397;53.576;9.746;2023-02-01T16:33:54;33.90;;;4.70;;
4766;SDS011;2397;53.576;9.746;2023-02-01T16:36:21;19.23;;;4.33;;
4766;SDS011;2397;53.576;9.746;2023-02-01T16:38:48;27.70;;;6.47;;
4766;SDS011;2397;53.576;9.746;2023-02-01T16:41:17;17.63;;;4.37;;
4766;SDS011;2397;53.576;9.746;2023-02-01T16:43:44;16.53;;;3.87;;
4766;SDS011;2397;53.576;9.746;2023-02-01T16:46:15;22.47;;;5.33;;
4766;SDS011;2397;53.576;9.746;2023-02-01T16:48:44;21.97;;;4.30;;
4766;SDS011;2397;53.576;9.746;2023-02-01T16:51:17;17.13;;;5.27;;
4766;SDS011;2397;53.576;9.746;2023-02-01T16:53:44;18.07;;;4.70;;
4766;SDS011;2397;53.576;9.746;2023-02-01T16:56:21;23.13;;;6.10;;
4766;SDS011;2397;53.576;9.746;2023-02-01T16:58:54;21.50;;;4.77;;
4766;SDS011;2397;53.576;9.746;2023-02-01T17:01:21;31.30;;;5.60;;
4766;SDS011;2397;53.576;9.746;2023-02-01T17:03:47;24.27;;;6.03;;
4766;SDS011;2397;53.576;9.746;2023-02-01T17:06:17;27.00;;;6.70;;
4766;SDS011;2397;53.576;9.746;2023-02-01T17:08:55;16.50;;;3.90;;
4766;SDS011;2397;53.576;9.746;2023-02-01T17:11:24;21.23;;;4.90;;
4766;SDS011;2397;53.576;9.746;2023-02-01T17:13:52;36.30;;;5.40;;
4766;SDS011;2397;53.576;9.746;2023-02-01T17:16:25;15.80;;;4.33;;
4766;SDS011;2397;53.576;9.746;2023-02-01T17:18:56;31.07;;;5.47;;
4766;SDS011;2397;53.576;9.746;2023-02-01T17:21:26;31.40;;;5.27;;
4766;SDS011;2397;53.576;9.746;2023-02-01T17:23:54;21.60;;;5.10;;
4766;SDS011;2397;53.576;9.746;2023-02-01T17:26:21;20.17;;;3.90;;
4766;SDS011;2397;53.576;9.746;2023-02-01T17:28:48;27.53;;;4.80;;
4766;SDS011;2397;53.576;9.746;2023-02-01T17:31:14;12.90;;;3.00;;
4766;SDS011;2397;53.576;9.746;2023-02-01T17:33:42;19.70;;;5.10;;
4766;SDS011;2397;53.576;9.746;2023-02-01T17:36:13;33.17;;;4.60;;
4766;SDS011;2397;53.576;9.746;2023-02-01T17:38:41;22.53;;;4.30;;
4766;SDS011;2397;53.576;9.746;2023-02-01T17:41:12;29.03;;;4.80;;
4766;SDS011;2397;53.576;9.746;2023-02-01T17:43:39;21.00;;;5.27;;
4766;SDS011;2397;53.576;9.746;2023-02-01T17:46:10;16.70;;;3.37;;
4766;SDS011;2397;53.576;9.746;2023-02-01T17:48:38;16.70;;;4.10;;